D/T METAR WX W/DIR W/SPE G/SPE TEMP DEWP
28/05/20 18:30 EIKY 281730Z 15015KT CAVOK 21/12 Q1026 SSE (150°) 17.3mph 21°C 12°C
28/05/20 18:00 EIKY 281700Z 15016KT CAVOK 21/12 Q1026 SSE (150°) 18.4mph 21°C 12°C
28/05/20 17:30 EIKY 281630Z 15014G24KT 120V180 CAVOK 22/12 Q1026 SSE (150°) 16.1mph 27.6mph 22°C 12°C
28/05/20 17:00 EIKY 281600Z 15015G25KT 120V190 CAVOK 22/12 Q1026 SSE (150°) 17.3mph 28.8mph 22°C 12°C
28/05/20 16:30 EIKY 281530Z 16014KT 120V190 CAVOK 23/12 Q1027 SSE (160°) 16.1mph 23°C 12°C
28/05/20 16:00 EIKY 281500Z 16015G26KT 120V180 CAVOK 22/12 Q1027 SSE (160°) 17.3mph 29.9mph 22°C 12°C
28/05/20 15:30 EIKY 281430Z 15016KT 120V190 CAVOK 22/12 Q1027 SSE (150°) 18.4mph 22°C 12°C
28/05/20 15:00 EIKY 281400Z 15013KT 120V210 CAVOK 22/12 Q1027 SSE (150°) 15.0mph 22°C 12°C
28/05/20 14:30 EIKY 281330Z 13017KT CAVOK 24/12 Q1028 SE (130°) 19.6mph 24°C 12°C
28/05/20 14:00 EIKY 281300Z 15016G27KT CAVOK 23/12 Q1028 SSE (150°) 18.4mph 31.1mph 23°C 12°C
28/05/20 13:30 EIKY 281230Z 14016KT 110V170 CAVOK 22/12 Q1028 SE (140°) 18.4mph 22°C 12°C
28/05/20 13:00 EIKY 281200Z 15013KT 120V180 CAVOK 22/12 Q1028 SSE (150°) 15.0mph 22°C 12°C
28/05/20 12:00 EIKY 281100Z 15012KT 120V180 CAVOK 21/14 Q1029 SSE (150°) 13.8mph 21°C 14°C
28/05/20 10:30 EIKY 280930Z 12008KT 090V190 CAVOK 20/12 Q1029 ESE (120°) 9.2mph 20°C 12°C
28/05/20 10:00 EIKY 280900Z 10008KT CAVOK 19/12 Q1030 E (100°) 9.2mph 19°C 12°C
28/05/20 09:30 EIKY 280830Z 13005KT 100V160 CAVOK 19/12 Q1030 SE (130°) 5.8mph 19°C 12°C
28/05/20 09:00 EIKY 280800Z 13005KT 070V170 CAVOK 18/11 Q1030 SE (130°) 5.8mph 18°C 11°C
28/05/20 08:30 EIKY 280730Z 09003KT 050V130 CAVOK 16/10 Q1030 E (90°) 3.5mph 16°C 10°C
28/05/20 08:00 EIKY 280700Z 01003KT 340V050 CAVOK 15/10 Q1030 N (10°) 3.5mph 15°C 10°C
28/05/20 07:30 EIKY 280630Z 08003KT 040V110 CAVOK 14/09 Q1031 E (80°) 3.5mph 14°C 9°C
28/05/20 07:00 EIKY 280600Z 11006KT CAVOK 14/09 Q1031 ESE (110°) 6.9mph 14°C 9°C
28/05/20 06:30 EIKY 280530Z 09005KT 050V130 CAVOK 13/09 Q1031 E (90°) 5.8mph 13°C 9°C
28/05/20 06:00 EIKY 280500Z VRB05KT CAVOK 14/09 Q1031 N (0°) 5.8mph 14°C 9°C
27/05/20 19:00 EIKY 271800Z 32005KT 240V020 CAVOK 20/14 Q1034 NW (320°) 5.8mph 20°C 14°C
27/05/20 18:30 EIKY 271730Z 33004KT 270V040 9999 FEW043 20/14 Q1034 NNW (330°) 4.6mph 20°C 14°C
27/05/20 18:00 EIKY 271700Z 34004KT 290V020 9999 FEW041 20/14 Q1034 NNW (340°) 4.6mph 20°C 14°C
27/05/20 17:30 EIKY 271630Z 31004KT 270V350 9999 FEW030 20/14 Q1034 NW (310°) 4.6mph 20°C 14°C
27/05/20 17:00 EIKY 271600Z VRB03KT CAVOK 20/14 Q1035 N (0°) 3.5mph 20°C 14°C
27/05/20 16:30 EIKY 271530Z 33004KT 280V070 9999 BKN047 20/14 Q1035 NNW (330°) 4.6mph 20°C 14°C
27/05/20 16:00 EIKY 271500Z 34007KT 290V020 9999 BKN044 20/14 Q1035 NNW (340°) 8.1mph 20°C 14°C
27/05/20 14:30 EIKY 271330Z 14004KT 090V220 9999 BKN039 23/14 Q1034 SE (140°) 4.6mph 23°C 14°C
27/05/20 14:00 EIKY 271300Z 19004KT 080V250 9999 BKN039 22/14 Q1035 S (190°) 4.6mph 22°C 14°C
27/05/20 13:30 EIKY 271230Z VRB03KT 9999 BKN037 22/14 Q1035 N (0°) 3.5mph 22°C 14°C
27/05/20 12:30 EIKY 271130Z 19005KT 140V240 9999 BKN034 22/14 Q1035 S (190°) 5.8mph 22°C 14°C
27/05/20 12:00 EIKY 271100Z VRB04KT 9999 SCT035 21/13 Q1035 N (0°) 4.6mph 21°C 13°C
27/05/20 10:30 EIKY 270930Z VRB02KT 9999 FEW018 19/12 Q1036 N (0°) 2.3mph 19°C 12°C
27/05/20 10:00 EIKY 270900Z VRB02KT CAVOK 18/11 Q1036 N (0°) 2.3mph 18°C 11°C
27/05/20 09:30 EIKY 270830Z VRB02KT CAVOK 17/11 Q1036 N (0°) 2.3mph 17°C 11°C
27/05/20 09:00 EIKY 270800Z 25003KT 220V320 CAVOK 16/10 Q1036 WSW (250°) 3.5mph 16°C 10°C
27/05/20 08:30 EIKY 270730Z 10004KT 070V140 CAVOK 16/09 Q1036 E (100°) 4.6mph 16°C 9°C
27/05/20 08:00 EIKY 270700Z VRB01KT CAVOK 14/10 Q1036 N (0°) 1.2mph 14°C 10°C
27/05/20 07:30 EIKY 270630Z VRB01KT CAVOK 12/11 Q1036 N (0°) 1.2mph 12°C 11°C
27/05/20 07:00 EIKY 270600Z VRB02KT CAVOK 11/10 Q1036 N (0°) 2.3mph 11°C 10°C
26/05/20 19:00 EIKY 261800Z 33006KT 290V010 9999 BKN032 16/11 Q1037 NNW (330°) 6.9mph 16°C 11°C
26/05/20 18:30 EIKY 261730Z 33006KT 300V010 9999 BKN030 17/11 Q1037 NNW (330°) 6.9mph 17°C 11°C
26/05/20 18:00 EIKY 261700Z 33008KT 290V350 9999 BKN028 17/12 Q1037 NNW (330°) 9.2mph 17°C 12°C
26/05/20 17:30 EIKY 261630Z 34006KT 300V010 9999 FEW027 SCT032 BKN048 18/13 Q1037 NNW (340°) 6.9mph 18°C 13°C
26/05/20 17:00 EIKY 261600Z 34007KT 320V030 9999 SCT027 BKN048 19/14 Q1037 NNW (340°) 8.1mph 19°C 14°C
26/05/20 16:30 EIKY 261530Z 33005KT 290V360 9999 BKN028 18/13 Q1037 NNW (330°) 5.8mph 18°C 13°C
26/05/20 16:00 EIKY 261500Z 32004KT 260V360 9999 BKN027 OVC033 18/13 Q1037 NW (320°) 4.6mph 18°C 13°C
26/05/20 15:30 EIKY 261430Z 33003KT 280V030 9999 BKN030 OVC035 19/13 Q1037 NNW (330°) 3.5mph 19°C 13°C
26/05/20 15:00 EIKY 261400Z 34003KT 270V050 9999 FEW026 BKN030 OVC044 19/13 Q1037 NNW (340°) 3.5mph 19°C 13°C
26/05/20 14:30 EIKY 261330Z VRB02KT 9999 FEW026 BKN045 19/12 Q1037 N (0°) 2.3mph 19°C 12°C
26/05/20 14:00 EIKY 261300Z VRB03KT 9999 SCT027 BKN046 19/13 Q1037 N (0°) 3.5mph 19°C 13°C
26/05/20 13:30 EIKY 261230Z 29003KT 240V020 9999 SCT028 BKN041 18/12 Q1037 WNW (290°) 3.5mph 18°C 12°C
26/05/20 13:00 EIKY 261200Z 33004KT 260V020 9999 FEW023 BKN046 18/12 Q1037 NNW (330°) 4.6mph 18°C 12°C
26/05/20 12:30 EIKY 261130Z 36004KT 300V050 9999 BKN022 OVC044 17/12 Q1037 N (360°) 4.6mph 17°C 12°C
26/05/20 12:00 EIKY 261100Z VRB02KT 9999 SCT023 BKN029 18/13 Q1037 N (0°) 2.3mph 18°C 13°C
26/05/20 11:30 EIKY 261030Z 33003KT 270V030 9999 FEW017 BKN028 17/12 Q1037 NNW (330°) 3.5mph 17°C 12°C
26/05/20 11:00 EIKY 261000Z VRB02KT 9999 FEW012 BKN015 16/13 Q1037 N (0°) 2.3mph 16°C 13°C
26/05/20 10:30 EIKY 260930Z VRB02KT 9999 BKN026 15/12 Q1037 N (0°) 2.3mph 15°C 12°C
26/05/20 10:00 EIKY 260900Z VRB02KT 9999 SCT010 SCT044 14/12 Q1037 N (0°) 2.3mph 14°C 12°C
26/05/20 09:30 EIKY 260830Z VRB01KT 9999 SCT007 BKN009 OVC040 13/12 Q1037 N (0°) 1.2mph 13°C 12°C
26/05/20 09:00 EIKY 260800Z VRB02KT 9999 BKN015 13/12 Q1037 N (0°) 2.3mph 13°C 12°C
26/05/20 08:30 EIKY 260730Z VRB01KT 9999 BKN015 12/12 Q1037 N (0°) 1.2mph 12°C 12°C
26/05/20 08:00 EIKY 260700Z VRB02KT 9999 OVC010 12/12 Q1036 N (0°) 2.3mph 12°C 12°C
26/05/20 07:00 EIKY 260600Z 33004KT 270V030 1100 BR OVC008 12/11 Q1036 BR NNW (330°) 4.6mph 12°C 11°C
26/05/20 06:00 EIKY 260500Z 32003KT 290V350 1000 FG VV004 12/12 Q1035 FG NW (320°) 3.5mph 12°C 12°C
25/05/20 19:00 EIKY 251800Z 18006KT 160V230 9999 BKN017 15/12 Q1032 S (180°) 6.9mph 15°C 12°C
25/05/20 18:30 EIKY 251730Z 20009KT 9999 BKN022 15/12 Q1031 SSW (200°) 10.4mph 15°C 12°C
25/05/20 18:00 EIKY 251700Z 18011KT 9999 BKN023 14/12 Q1031 S (180°) 12.7mph 14°C 12°C
25/05/20 17:30 EIKY 251630Z 19012KT 160V220 9999 BKN025 15/11 Q1031 S (190°) 13.8mph 15°C 11°C
25/05/20 17:00 EIKY 251600Z 17012KT 130V200 9999 FEW020 BKN027 14/11 Q1031 S (170°) 13.8mph 14°C 11°C
25/05/20 16:30 EIKY 251530Z 17011KT 9999 SCT020 BKN024 14/11 Q1031 S (170°) 12.7mph 14°C 11°C
25/05/20 16:00 EIKY 251500Z 17012KT 140V200 9999 FEW022 BKN027 14/11 Q1031 S (170°) 13.8mph 14°C 11°C
25/05/20 15:30 EIKY 251430Z 19017KT 9999 BKN036 15/11 Q1031 S (190°) 19.6mph 15°C 11°C
25/05/20 15:00 EIKY 251400Z 19018G28KT 9999 SCT025 16/11 Q1030 S (190°) 20.7mph 32.2mph 16°C 11°C
25/05/20 14:30 EIKY 251330Z 19020KT 9999 SCT029 BKN034 14/10 Q1030 S (190°) 23.0mph 14°C 10°C
25/05/20 14:00 EIKY 251300Z 20016KT 9999 SCT027 OVC044 15/09 Q1031 SSW (200°) 18.4mph 15°C 9°C
25/05/20 13:30 EIKY 251230Z 20012KT 170V230 9999 -DZ BKN027 15/09 Q1031 -DZ SSW (200°) 13.8mph 15°C 9°C
25/05/20 13:00 EIKY 251200Z 21014KT 9999 SCT024 15/08 Q1031 SSW (210°) 16.1mph 15°C 8°C
25/05/20 12:30 EIKY 251130Z 21014KT 9999 FEW031 15/07 Q1031 SSW (210°) 16.1mph 15°C 7°C
25/05/20 12:00 EIKY 251100Z 19011KT 160V220 CAVOK 16/08 Q1031 S (190°) 12.7mph 16°C 8°C
25/05/20 11:30 EIKY 251030Z 20012KT 170V230 CAVOK 17/08 Q1030 SSW (200°) 13.8mph 17°C 8°C
25/05/20 11:00 EIKY 251000Z 19014KT 9999 FEW031 16/08 Q1030 S (190°) 16.1mph 16°C 8°C
25/05/20 10:30 EIKY 250930Z 19015KT CAVOK 15/08 Q1030 S (190°) 17.3mph 15°C 8°C
25/05/20 10:00 EIKY 250900Z 19015KT CAVOK 15/08 Q1030 S (190°) 17.3mph 15°C 8°C
25/05/20 09:00 EIKY 250800Z 19011KT 160V220 9999 FEW029 14/08 Q1031 S (190°) 12.7mph 14°C 8°C
25/05/20 08:30 EIKY 250730Z 17011KT 140V210 9999 FEW030 13/08 Q1031 S (170°) 12.7mph 13°C 8°C
25/05/20 08:00 EIKY 250700Z 19012KT 9999 SCT031 13/08 Q1031 S (190°) 13.8mph 13°C 8°C
25/05/20 07:30 EIKY 250630Z 20010KT 160V220 CAVOK 12/08 Q1031 SSW (200°) 11.5mph 12°C 8°C
25/05/20 07:00 EIKY 250600Z 18007KT 160V220 CAVOK 12/08 Q1031 S (180°) 8.1mph 12°C 8°C
24/05/20 19:00 EIKY 241800Z 26009KT 240V300 9999 SCT044 15/08 Q1031 W (260°) 10.4mph 15°C 8°C
24/05/20 18:30 EIKY 241730Z 26008KT 240V300 9999 SCT042 15/09 Q1031 W (260°) 9.2mph 15°C 9°C
24/05/20 18:00 EIKY 241700Z 24010KT 220V280 9999 FEW037 BKN044 17/07 Q1031 WSW (240°) 11.5mph 17°C 7°C
24/05/20 17:30 EIKY 241630Z 26008KT 230V320 9999 SCT041 17/10 Q1031 W (260°) 9.2mph 17°C 10°C